Time;durP1;ratioP1;P1;durP2;ratioP2;P2;SDS_P1;SDS_P2;PMS_P1;PMS_P2;Temp;Humidity;BMP_temperature;BMP_pressure;BME280_temperature;BME280_humidity;BME280_pressure;Samples;Min_cycle;Max_cycle;Signal;HPM_P1;HPM_P2
2022/10/29 00:00:28;;;;;;;26.13;10.63;;;15.10;1.00;;;;;;4990500;28;20183;-66
2022/10/29 00:02:54;;;;;;;34.63;9.70;;;15.00;1.00;;;;;;4990560;28;20173;-66
2022/10/29 00:05:20;;;;;;;18.60;9.70;;;15.00;1.00;;;;;;4991076;28;20173;-67
2022/10/29 00:07:45;;;;;;;19.93;9.90;;;14.90;1.00;;;;;;4990623;28;20200;-66
2022/10/29 00:10:11;;;;;;;21.73;10.43;;;14.80;1.00;;;;;;4990882;28;20181;-67
2022/10/29 00:12:36;;;;;;;25.80;10.37;;;14.80;1.00;;;;;;4990531;28;20254;-67
2022/10/29 00:15:03;;;;;;;19.53;8.60;;;14.90;1.00;;;;;;4991340;28;20200;-67
2022/10/29 00:17:29;;;;;;;17.00;8.60;;;14.90;1.00;;;;;;4990367;28;20663;-66
2022/10/29 00:19:54;;;;;;;14.70;9.17;;;15.00;1.00;;;;;;4990731;28;20513;-66
2022/10/29 00:22:20;;;;;;;15.40;9.37;;;14.90;1.00;;;;;;4989966;28;20538;-66
2022/10/29 00:24:46;;;;;;;19.97;10.87;;;15.00;1.00;;;;;;4991276;28;20192;-66
2022/10/29 00:27:11;;;;;;;20.07;9.47;;;15.00;1.00;;;;;;5005448;28;20204;-67
2022/10/29 00:29:37;;;;;;;22.00;8.60;;;15.00;1.00;;;;;;4991183;28;20188;-67
2022/10/29 00:32:03;;;;;;;11.43;10.13;;;14.90;1.00;;;;;;4989783;28;20181;-67
2022/10/29 00:34:29;;;;;;;13.20;9.10;;;14.80;1.00;;;;;;4978179;28;20264;-66
2022/10/29 00:36:54;;;;;;;19.57;8.80;;;14.80;1.00;;;;;;4971187;28;20689;-68
2022/10/29 00:39:20;;;;;;;12.27;9.30;;;14.80;1.00;;;;;;4971737;28;20220;-66
2022/10/29 00:41:46;;;;;;;23.80;11.00;;;14.80;1.00;;;;;;4970444;28;20201;-67
2022/10/29 00:44:14;;;;;;;18.27;9.20;;;14.80;1.00;;;;;;4971299;28;20169;-67
2022/10/29 00:46:55;;;;;;;19.33;10.10;;;14.80;1.00;;;;;;4983405;28;20201;-66
2022/10/29 00:49:23;;;;;;;14.67;8.70;;;14.80;1.00;;;;;;4990759;28;20486;-67
2022/10/29 00:51:50;;;;;;;12.10;9.70;;;14.80;1.00;;;;;;4989613;28;20973;-67
2022/10/29 00:54:17;;;;;;;17.53;9.03;;;14.70;1.00;;;;;;4990359;28;20420;-66
2022/10/29 00:56:58;;;;;;;13.37;8.17;;;14.70;1.00;;;;;;4990026;28;20427;-66
2022/10/29 00:59:24;;;;;;;12.30;9.00;;;14.70;1.00;;;;;;4990187;28;20440;-66
2022/10/29 01:01:50;;;;;;;21.27;9.60;;;14.50;1.00;;;;;;4981308;28;20424;-66
2022/10/29 01:04:17;;;;;;;14.93;9.40;;;14.60;1.00;;;;;;4990423;28;20423;-66
2022/10/29 01:06:43;;;;;;;14.70;8.60;;;14.50;1.00;;;;;;4990019;28;20782;-67
2022/10/29 01:09:09;;;;;;;17.50;10.03;;;14.50;1.00;;;;;;4990022;28;20845;-66
2022/10/29 01:11:52;;;;;;;13.40;8.87;;;14.60;1.00;;;;;;4989283;28;20427;-66
2022/10/29 01:14:24;;;;;;;20.57;9.47;;;14.60;1.00;;;;;;4990503;28;20177;-66
2022/10/29 01:17:22;;;;;;;16.93;9.43;;;14.40;1.00;;;;;;4989728;28;20428;-66
2022/10/29 01:20:12;;;;;;;13.67;9.77;;;14.50;1.00;;;;;;4990272;28;20454;-66
2022/10/29 01:23:00;;;;;;;37.53;12.00;;;14.50;1.00;;;;;;4989612;28;20419;-66
2022/10/29 01:25:53;;;;;;;16.17;9.30;;;14.50;1.00;;;;;;4989904;28;20458;-66
2022/10/29 01:28:49;;;;;;;18.00;9.13;;;14.50;1.00;;;;;;4986203;28;20953;-66
2022/10/29 01:31:32;;;;;;;12.67;8.87;;;14.60;1.00;;;;;;4981005;28;20567;-65
2022/10/29 01:34:22;;;;;;;13.23;10.33;;;14.50;1.00;;;;;;4994688;28;21026;-66
2022/10/29 01:36:56;;;;;;;15.67;11.00;;;14.50;1.00;;;;;;4994755;28;20404;-66
2022/10/29 01:39:42;;;;;;;10.70;8.73;;;14.40;1.00;;;;;;4994890;28;20427;-66
2022/10/29 01:42:15;;;;;;;39.00;11.50;;;14.40;1.00;;;;;;4992086;28;20427;-67
2022/10/29 01:44:55;;;;;;;19.33;9.30;;;14.40;1.00;;;;;;4993780;28;20403;-67
2022/10/29 01:47:24;;;;;;;45.87;11.97;;;14.40;1.00;;;;;;4993511;28;20460;-66
2022/10/29 01:49:55;;;;;;;40.27;10.80;;;14.40;1.00;;;;;;4993898;28;20527;-67
2022/10/29 01:52:23;;;;;;;17.07;9.27;;;14.40;1.00;;;;;;4992918;28;21084;-67
2022/10/29 01:54:48;;;;;;;17.23;9.30;;;14.30;1.00;;;;;;4993621;28;20427;-66
2022/10/29 01:57:33;;;;;;;17.30;9.33;;;14.30;1.00;;;;;;4994048;28;20860;-66
2022/10/29 02:00:02;;;;;;;32.17;9.97;;;14.30;1.00;;;;;;4993283;28;20235;-67
2022/10/29 02:03:08;;;;;;;17.53;8.73;;;14.40;1.00;;;;;;4992509;28;20412;-66
2022/10/29 02:05:43;;;;;;;12.70;8.57;;;14.30;1.00;;;;;;4993591;28;20420;-66
2022/10/29 02:08:55;;;;;;;19.97;8.20;;;14.30;1.00;;;;;;5012966;23;20478;-63
2022/10/29 02:11:47;;;;;;;17.73;9.30;;;14.20;1.00;;;;;;4950797;28;20429;-68
2022/10/29 02:14:18;;;;;;;14.87;9.20;;;14.20;1.00;;;;;;4971467;28;20413;-68
2022/10/29 02:16:46;;;;;;;14.27;9.03;;;14.20;1.00;;;;;;4965257;28;20417;-67
2022/10/29 02:19:12;;;;;;;16.00;8.60;;;14.20;1.00;;;;;;4964232;28;20437;-65
2022/10/29 02:21:39;;;;;;;14.83;9.23;;;14.20;1.00;;;;;;4972938;28;20427;-66
2022/10/29 02:24:05;;;;;;;11.03;9.20;;;14.20;1.00;;;;;;4973692;28;20432;-68
2022/10/29 02:26:31;;;;;;;12.87;8.40;;;14.20;1.00;;;;;;4987814;28;20523;-66
2022/10/29 02:28:57;;;;;;;13.77;8.33;;;14.20;1.00;;;;;;4973765;28;20444;-61
2022/10/29 02:31:24;;;;;;;10.90;7.83;;;14.20;1.00;;;;;;4972914;28;20180;-67
2022/10/29 02:33:49;;;;;;;9.80;7.90;;;14.10;1.00;;;;;;4959759;28;20483;-67
2022/10/29 02:36:15;;;;;;;21.83;9.53;;;14.10;1.00;;;;;;4962821;28;20505;-66
2022/10/29 02:38:41;;;;;;;19.63;10.80;;;14.10;1.00;;;;;;4980217;28;20245;-67
2022/10/29 02:41:06;;;;;;;20.23;8.93;;;14.10;1.00;;;;;;4973000;28;20176;-67
2022/10/29 02:43:32;;;;;;;10.93;9.37;;;14.10;1.00;;;;;;4973790;28;20634;-66
2022/10/29 02:46:18;;;;;;;17.77;8.53;;;14.10;1.00;;;;;;4973851;28;20252;-67
2022/10/29 02:48:44;;;;;;;16.13;9.00;;;14.10;1.00;;;;;;4973488;28;20557;-67
2022/10/29 02:51:10;;;;;;;14.10;9.40;;;14.10;1.00;;;;;;4972957;28;20413;-65
2022/10/29 02:53:35;;;;;;;13.60;8.10;;;14.10;1.00;;;;;;4973105;28;20461;-68
2022/10/29 02:56:01;;;;;;;12.30;8.67;;;14.10;1.00;;;;;;4973611;28;20417;-67
2022/10/29 02:58:27;;;;;;;11.10;8.83;;;14.10;1.00;;;;;;4973252;28;20786;-67
2022/10/29 03:00:53;;;;;;;14.33;8.40;;;14.10;1.00;;;;;;4971604;28;20504;-67
2022/10/29 03:03:19;;;;;;;12.27;8.00;;;14.10;1.00;;;;;;4971970;28;20178;-68
2022/10/29 03:05:45;;;;;;;15.50;9.37;;;14.00;1.00;;;;;;4973180;28;20574;-68
2022/10/29 03:08:11;;;;;;;12.03;8.00;;;14.10;1.00;;;;;;4972602;28;20761;-67
2022/10/29 03:10:36;;;;;;;27.20;9.80;;;14.10;1.00;;;;;;4972009;28;20432;-67
2022/10/29 03:13:02;;;;;;;16.80;9.50;;;14.10;1.00;;;;;;4972736;28;20705;-68
2022/10/29 03:15:28;;;;;;;13.00;8.37;;;14.10;1.00;;;;;;4973533;28;20166;-68
2022/10/29 03:17:53;;;;;;;16.30;8.60;;;14.00;1.00;;;;;;4971971;28;20197;-65
2022/10/29 03:20:19;;;;;;;10.53;8.13;;;14.00;1.00;;;;;;4972235;28;20220;-66
2022/10/29 03:22:45;;;;;;;10.93;7.70;;;14.00;1.00;;;;;;4967349;28;20178;-66
2022/10/29 03:25:11;;;;;;;11.80;7.37;;;14.00;1.00;;;;;;4972927;28;20555;-68
2022/10/29 03:27:44;;;;;;;17.77;8.53;;;14.00;1.00;;;;;;4972577;28;20295;-68
2022/10/29 03:30:14;;;;;;;14.27;9.23;;;14.00;1.00;;;;;;4972340;28;20368;-65
2022/10/29 03:32:40;;;;;;;38.47;9.90;;;14.00;1.00;;;;;;4971598;28;20421;-66
2022/10/29 03:35:07;;;;;;;11.90;8.93;;;14.00;1.00;;;;;;4972583;28;20425;-65
2022/10/29 03:37:33;;;;;;;10.87;7.33;;;14.00;1.00;;;;;;4967095;28;20421;-63
2022/10/29 03:39:58;;;;;;;14.73;8.53;;;14.00;1.00;;;;;;4972280;28;20437;-65
2022/10/29 03:42:24;;;;;;;14.33;8.00;;;13.90;1.00;;;;;;4971489;28;20203;-66
2022/10/29 03:44:50;;;;;;;17.27;9.20;;;13.90;1.00;;;;;;4972181;28;20240;-65
2022/10/29 03:47:15;;;;;;;11.30;8.20;;;14.00;1.00;;;;;;4971648;28;20205;-64
2022/10/29 03:49:41;;;;;;;12.13;8.97;;;14.00;1.00;;;;;;4972324;28;20193;-63
2022/10/29 03:52:07;;;;;;;12.70;8.20;;;13.90;1.00;;;;;;4971224;28;20216;-66
2022/10/29 03:54:32;;;;;;;12.60;9.03;;;13.90;1.00;;;;;;4972348;28;20174;-64
2022/10/29 03:56:58;;;;;;;12.60;8.30;;;13.90;1.00;;;;;;4972189;28;20197;-65
2022/10/29 03:59:24;;;;;;;12.23;8.40;;;14.00;1.00;;;;;;4971916;28;20280;-65
2022/10/29 04:01:49;;;;;;;13.17;9.17;;;14.00;1.00;;;;;;4970544;28;20579;-65
2022/10/29 04:04:15;;;;;;;14.03;10.13;;;14.00;1.00;;;;;;4972494;28;20829;-64
2022/10/29 04:06:41;;;;;;;17.63;9.30;;;14.00;1.00;;;;;;4971981;28;20197;-64
2022/10/29 04:09:06;;;;;;;35.13;10.13;;;14.00;1.00;;;;;;4971363;28;20641;-65
2022/10/29 04:11:32;;;;;;;41.27;10.47;;;14.00;1.00;;;;;;4971281;28;20165;-63
2022/10/29 04:13:58;;;;;;;17.40;8.40;;;14.00;1.00;;;;;;4971889;28;20261;-64
2022/10/29 04:16:23;;;;;;;20.17;8.60;;;14.00;1.00;;;;;;4971405;28;20177;-66
2022/10/29 04:18:49;;;;;;;37.53;11.47;;;14.00;1.00;;;;;;4971640;28;20216;-67
2022/10/29 04:21:16;;;;;;;18.10;9.83;;;14.00;1.00;;;;;;4971059;28;20166;-66
2022/10/29 04:23:42;;;;;;;11.83;8.23;;;14.00;1.00;;;;;;4971555;28;20174;-66
2022/10/29 04:26:08;;;;;;;21.77;8.73;;;14.00;1.00;;;;;;4973418;28;21471;-68
2022/10/29 04:28:34;;;;;;;18.93;8.80;;;14.00;1.00;;;;;;4972951;28;20190;-67
2022/10/29 04:31:06;;;;;;;15.67;8.93;;;13.90;1.00;;;;;;4958194;28;20554;-66
2022/10/29 04:33:32;;;;;;;16.20;8.20;;;14.00;1.00;;;;;;4952405;28;20161;-67
2022/10/29 04:35:58;;;;;;;15.30;8.83;;;14.00;1.00;;;;;;4951057;29;20422;-68
2022/10/29 04:38:24;;;;;;;14.20;8.30;;;13.90;1.00;;;;;;4952287;29;20472;-64
2022/10/29 04:40:50;;;;;;;17.50;9.37;;;13.90;1.00;;;;;;4951580;29;20198;-65
2022/10/29 04:43:16;;;;;;;22.00;11.77;;;13.90;1.00;;;;;;4965723;28;20166;-64
2022/10/29 04:45:41;;;;;;;25.13;9.83;;;13.90;1.00;;;;;;4971618;28;20634;-64
2022/10/29 04:48:08;;;;;;;16.50;9.13;;;13.90;1.00;;;;;;4971028;28;20547;-66
2022/10/29 04:50:36;;;;;;;17.93;8.40;;;13.90;1.00;;;;;;4970677;28;20611;-66
2022/10/29 04:53:04;;;;;;;11.50;8.40;;;13.90;1.00;;;;;;4971557;28;20417;-65
2022/10/29 04:55:30;;;;;;;14.73;8.60;;;13.90;1.00;;;;;;4971374;28;20491;-65
2022/10/29 04:57:56;;;;;;;16.67;9.37;;;13.90;1.00;;;;;;4966602;28;20424;-64
2022/10/29 05:00:22;;;;;;;11.97;8.20;;;13.90;1.00;;;;;;4970693;28;20453;-65
2022/10/29 05:02:49;;;;;;;15.23;9.10;;;13.90;1.00;;;;;;4970326;28;20576;-66
2022/10/29 05:05:20;;;;;;;21.00;8.97;;;13.90;1.00;;;;;;4971185;28;20508;-63
2022/10/29 05:07:46;;;;;;;14.83;8.07;;;13.90;1.00;;;;;;4969838;28;20862;-63
2022/10/29 05:10:12;;;;;;;19.47;9.30;;;13.90;1.00;;;;;;4969971;28;20495;-63
2022/10/29 05:12:37;;;;;;;20.63;8.77;;;13.90;1.00;;;;;;4970555;28;20169;-62
2022/10/29 05:15:04;;;;;;;21.07;10.00;;;13.90;1.00;;;;;;4971249;28;20479;-62
2022/10/29 05:17:29;;;;;;;34.83;10.80;;;14.00;1.00;;;;;;4969892;28;20196;-62
2022/10/29 05:19:55;;;;;;;19.73;9.77;;;14.00;1.00;;;;;;4970741;28;20779;-64
2022/10/29 05:22:20;;;;;;;24.17;9.43;;;14.00;1.00;;;;;;4974493;28;20245;-67
2022/10/29 05:24:46;;;;;;;10.47;8.20;;;14.00;1.00;;;;;;4978206;28;20174;-64
2022/10/29 05:27:12;;;;;;;24.33;10.87;;;14.00;1.00;;;;;;4967405;28;20212;-65
2022/10/29 05:29:38;;;;;;;22.50;9.53;;;14.10;1.00;;;;;;4959604;28;20190;-65
2022/10/29 05:32:03;;;;;;;23.17;8.60;;;14.10;1.00;;;;;;4963451;28;20252;-65
2022/10/29 05:34:29;;;;;;;17.17;8.57;;;14.10;1.00;;;;;;4970691;28;20178;-67
2022/10/29 05:36:55;;;;;;;37.97;9.90;;;14.10;1.00;;;;;;4969719;28;20186;-66
2022/10/29 05:39:20;;;;;;;23.77;9.47;;;14.10;1.00;;;;;;4969624;28;20193;-65
2022/10/29 05:41:46;;;;;;;40.10;9.20;;;14.10;1.00;;;;;;4961292;28;20203;-62
2022/10/29 05:44:12;;;;;;;45.93;10.37;;;14.10;1.00;;;;;;4969367;28;20177;-64
2022/10/29 05:46:37;;;;;;;38.60;10.43;;;14.10;1.00;;;;;;4965860;28;20212;-65
2022/10/29 05:49:04;;;;;;;41.27;10.90;;;14.10;1.00;;;;;;4968804;28;20197;-64
2022/10/29 05:51:29;;;;;;;37.37;9.80;;;14.10;1.00;;;;;;4966770;28;20682;-65
2022/10/29 05:53:55;;;;;;;27.90;10.17;;;14.10;1.00;;;;;;4970055;28;20433;-65
2022/10/29 05:56:21;;;;;;;36.37;10.40;;;14.10;1.00;;;;;;4970205;28;20197;-64
2022/10/29 05:58:50;;;;;;;29.97;9.80;;;14.10;1.00;;;;;;4966804;28;20201;-63
2022/10/29 06:01:18;;;;;;;42.90;11.60;;;14.10;1.00;;;;;;4965888;28;20281;-67
2022/10/29 06:03:44;;;;;;;54.00;13.47;;;14.20;1.00;;;;;;4965357;28;20412;-64
2022/10/29 06:06:10;;;;;;;15.80;9.63;;;14.20;1.00;;;;;;4973633;28;20969;-65
2022/10/29 06:08:36;;;;;;;25.47;8.30;;;14.20;1.00;;;;;;4969262;28;20518;-66
2022/10/29 06:11:02;;;;;;;52.77;13.80;;;14.20;1.00;;;;;;4969240;28;20170;-65
2022/10/29 06:13:29;;;;;;;34.53;10.40;;;14.20;1.00;;;;;;4970265;28;20178;-66
2022/10/29 06:15:59;;;;;;;25.97;9.23;;;14.20;1.00;;;;;;4965242;28;20894;-66
2022/10/29 06:18:28;;;;;;;72.03;12.77;;;14.20;1.00;;;;;;4966986;28;20532;-64
2022/10/29 06:20:56;;;;;;;230.33;25.20;;;14.20;1.00;;;;;;4970493;28;20451;-63
2022/10/29 06:23:22;;;;;;;294.40;31.60;;;14.20;1.00;;;;;;4972849;28;20429;-61
2022/10/29 06:25:48;;;;;;;79.80;15.53;;;14.20;1.00;;;;;;4973839;28;20413;-64
2022/10/29 06:28:15;;;;;;;43.47;11.63;;;14.10;1.00;;;;;;4973326;28;20205;-63
2022/10/29 06:30:46;;;;;;;65.93;14.13;;;14.10;1.00;;;;;;4972988;28;20180;-65
2022/10/29 06:33:12;;;;;;;113.23;18.00;;;14.10;1.00;;;;;;4973794;28;20887;-64
2022/10/29 06:35:38;;;;;;;43.20;11.43;;;14.10;1.00;;;;;;4973909;28;20480;-66
2022/10/29 06:38:03;;;;;;;33.43;9.30;;;14.10;1.00;;;;;;4974192;28;20177;-64
2022/10/29 06:40:29;;;;;;;42.93;9.80;;;14.20;1.00;;;;;;4968003;28;20771;-64
2022/10/29 06:43:03;;;;;;;32.47;10.47;;;14.20;1.00;;;;;;4954487;29;20225;-63
2022/10/29 06:45:30;;;;;;;46.93;12.23;;;14.20;1.00;;;;;;4964081;28;20185;-65
2022/10/29 06:47:56;;;;;;;49.13;10.97;;;14.20;1.00;;;;;;4969556;28;20442;-66
2022/10/29 06:50:22;;;;;;;24.53;9.83;;;14.30;1.00;;;;;;4971162;28;20948;-67
2022/10/29 06:53:02;;;;;;;29.87;10.00;;;14.30;1.00;;;;;;4965256;28;20177;-63
2022/10/29 06:55:29;;;;;;;50.00;10.80;;;14.30;1.00;;;;;;4973189;28;20769;-65
2022/10/29 06:58:06;;;;;;;18.57;9.00;;;14.30;1.00;;;;;;4972481;28;20441;-65
2022/10/29 07:00:33;;;;;;;12.20;7.80;;;14.40;1.00;;;;;;4972230;28;20448;-65
2022/10/29 07:02:59;;;;;;;13.87;8.10;;;14.40;1.00;;;;;;4972354;28;20425;-66
2022/10/29 07:05:26;;;;;;;20.33;10.40;;;14.40;1.00;;;;;;4971866;28;20453;-65
2022/10/29 07:07:56;;;;;;;11.30;7.60;;;14.50;1.00;;;;;;4972772;28;20464;-65
2022/10/29 07:10:22;;;;;;;34.00;10.20;;;14.50;1.00;;;;;;4972372;28;20461;-65
2022/10/29 07:12:48;;;;;;;17.83;9.57;;;14.50;1.00;;;;;;4972169;28;20752;-66
2022/10/29 07:15:13;;;;;;;14.10;8.57;;;14.60;1.00;;;;;;4972926;28;20421;-64
2022/10/29 07:17:39;;;;;;;11.73;7.30;;;14.70;1.00;;;;;;4971005;28;20190;-68
2022/10/29 07:20:06;;;;;;;9.17;7.60;;;14.80;1.00;;;;;;4972520;28;20193;-68
2022/10/29 07:22:32;;;;;;;13.20;7.97;;;14.80;1.00;;;;;;4971208;28;20205;-67
2022/10/29 07:24:58;;;;;;;15.70;8.57;;;14.90;1.00;;;;;;4972916;28;20487;-68
2022/10/29 07:27:24;;;;;;;10.73;8.13;;;15.00;1.00;;;;;;4971934;28;21207;-67
2022/10/29 07:29:49;;;;;;;15.30;8.37;;;15.10;99.90;;;;;;4971594;28;20343;-65
2022/10/29 07:32:15;;;;;;;22.30;10.97;;;15.30;99.90;;;;;;4971434;28;20190;-67
2022/10/29 07:34:41;;;;;;;24.70;9.03;;;15.80;99.90;;;;;;4971858;28;20240;-68
2022/10/29 07:37:07;;;;;;;18.47;8.53;;;16.60;99.90;;;;;;4961969;28;20525;-68
2022/10/29 07:39:32;;;;;;;23.43;9.77;;;17.80;36.90;;;;;;4972662;28;20193;-67
2022/10/29 07:41:58;;;;;;;41.47;9.60;;;19.00;1.00;;;;;;4957701;28;20683;-68
2022/10/29 07:44:24;;;;;;;29.47;9.97;;;19.90;1.00;;;;;;4953820;29;20178;-68
2022/10/29 07:46:49;;;;;;;31.33;8.53;;;20.80;1.00;;;;;;4966901;28;20216;-68
2022/10/29 07:49:15;;;;;;;16.47;7.53;;;21.90;1.00;;;;;;4963325;28;20503;-68
2022/10/29 07:51:41;;;;;;;48.30;9.57;;;22.90;1.00;;;;;;4963875;28;20209;-65
2022/10/29 07:54:07;;;;;;;51.00;12.30;;;23.60;99.90;;;;;;4972054;28;20177;-67
2022/10/29 07:56:32;;;;;;;21.40;7.60;;;24.10;99.90;;;;;;4970830;28;20448;-67
2022/10/29 07:58:58;;;;;;;19.03;8.00;;;24.70;99.90;;;;;;4962887;28;20274;-69
2022/10/29 08:01:24;;;;;;;14.90;8.73;;;25.50;99.90;;;;;;4964690;28;20178;-66
2022/10/29 08:03:50;;;;;;;23.73;8.33;;;26.00;99.90;;;;;;4972888;28;20185;-67
2022/10/29 08:06:16;;;;;;;34.03;9.63;;;26.30;99.90;;;;;;4975974;28;20621;-68
2022/10/29 08:08:41;;;;;;;27.93;8.10;;;26.30;99.90;;;;;;4972086;28;20498;-62
2022/10/29 08:11:07;;;;;;;13.87;8.10;;;25.90;99.90;;;;;;4971075;28;20879;-64
2022/10/29 08:13:33;;;;;;;49.93;11.33;;;25.60;99.90;;;;;;4971928;28;20542;-63
2022/10/29 08:15:59;;;;;;;234.87;23.97;;;25.50;99.90;;;;;;4971878;28;20689;-66
2022/10/29 08:18:25;;;;;;;107.07;16.63;;;25.30;99.90;;;;;;4969747;28;20424;-63
2022/10/29 08:20:50;;;;;;;121.70;16.97;;;25.40;99.90;;;;;;4971160;28;20635;-63
2022/10/29 08:23:16;;;;;;;95.10;16.73;;;25.20;99.90;;;;;;4971760;28;20257;-60
2022/10/29 08:25:43;;;;;;;129.30;17.90;;;24.90;99.90;;;;;;4971592;28;20667;-64
2022/10/29 08:28:11;;;;;;;69.23;13.37;;;24.30;99.90;;;;;;4972026;28;20745;-65
2022/10/29 08:30:37;;;;;;;172.03;22.47;;;24.10;99.90;;;;;;4971153;28;20417;-64
2022/10/29 08:33:03;;;;;;;57.87;12.00;;;24.00;99.90;;;;;;4971673;28;20409;-63
2022/10/29 08:35:30;;;;;;;41.43;10.37;;;23.40;99.90;;;;;;4972105;28;20454;-63
2022/10/29 08:37:56;;;;;;;182.90;22.40;;;23.30;99.90;;;;;;4971383;28;20961;-63
2022/10/29 08:40:58;;;;;;;41.03;11.00;;;23.20;99.90;;;;;;4971246;28;20437;-66
2022/10/29 08:43:23;;;;;;;82.10;13.60;;;23.10;99.90;;;;;;4971716;28;20409;-62
2022/10/29 08:45:51;;;;;;;162.80;21.37;;;23.10;99.90;;;;;;4971593;28;20422;-62
2022/10/29 08:48:17;;;;;;;63.23;13.27;;;23.10;99.90;;;;;;4970789;28;20608;-63
2022/10/29 08:51:05;;;;;;;98.87;16.20;;;23.30;99.90;;;;;;4970223;28;20405;-64
2022/10/29 08:53:38;;;;;;;197.77;23.87;;;23.30;99.90;;;;;;4971057;28;20272;-63
2022/10/29 08:56:15;;;;;;;142.17;20.67;;;23.30;99.90;;;;;;4971617;28;20468;-65
2022/10/29 08:58:53;;;;;;;53.23;10.27;;;23.40;99.90;;;;;;4971317;28;20802;-65
2022/10/29 09:01:21;;;;;;;51.40;11.03;;;23.40;99.90;;;;;;4971094;28;20909;-64
2022/10/29 09:03:47;;;;;;;147.40;17.27;;;23.50;99.90;;;;;;4972031;28;20953;-66
2022/10/29 09:06:21;;;;;;;93.83;13.07;;;23.50;99.90;;;;;;4972412;28;20410;-65
2022/10/29 09:09:03;;;;;;;84.50;12.57;;;23.60;99.90;;;;;;4972919;28;20445;-66
2022/10/29 09:12:04;;;;;;;71.57;13.47;;;23.50;99.90;;;;;;4972403;28;20702;-65
2022/10/29 09:15:08;;;;;;;95.93;15.23;;;23.60;99.90;;;;;;4971538;28;20476;-65
2022/10/29 09:17:47;;;;;;;105.63;16.17;;;23.30;99.90;;;;;;4969112;28;20497;-64
2022/10/29 09:20:42;;;;;;;100.53;14.77;;;23.50;99.90;;;;;;4970652;28;20435;-67
2022/10/29 09:23:46;;;;;;;19.30;8.70;;;23.60;99.90;;;;;;4971055;28;20412;-64
2022/10/29 09:26:23;;;;;;;97.83;15.93;;;23.90;99.90;;;;;;4969364;28;20425;-64
2022/10/29 09:29:12;;;;;;;93.33;15.23;;;24.00;99.90;;;;;;4971243;28;20439;-65
2022/10/29 09:31:57;;;;;;;170.47;23.97;;;24.00;99.90;;;;;;4950584;28;20512;-67
2022/10/29 09:34:47;;;;;;;203.53;22.43;;;24.10;99.90;;;;;;4970909;28;20417;-66
2022/10/29 09:37:16;;;;;;;44.77;9.23;;;24.10;99.90;;;;;;4965798;28;20471;-65
2022/10/29 09:39:46;;;;;;;27.73;8.30;;;24.10;99.90;;;;;;4970758;28;20458;-66
2022/10/29 09:42:16;;;;;;;56.17;9.80;;;24.10;99.90;;;;;;4969792;28;20421;-65
2022/10/29 09:44:53;;;;;;;91.50;13.87;;;24.20;99.90;;;;;;4971004;28;20424;-65
2022/10/29 09:47:36;;;;;;;26.80;8.80;;;24.20;99.90;;;;;;4970404;28;20555;-64
2022/10/29 09:50:29;;;;;;;67.20;12.97;;;24.10;99.90;;;;;;4973625;28;20432;-68
2022/10/29 09:52:55;;;;;;;194.43;26.43;;;24.10;99.90;;;;;;4970515;28;20408;-66
2022/10/29 09:55:45;;;;;;;91.77;14.20;;;24.00;99.90;;;;;;4973700;28;20987;-66
2022/10/29 09:58:21;;;;;;;64.13;11.33;;;23.90;99.90;;;;;;4974260;28;20613;-66
2022/10/29 10:00:47;;;;;;;69.07;12.53;;;23.90;99.90;;;;;;4973778;28;20404;-66
2022/10/29 10:03:23;;;;;;;123.00;19.80;;;23.90;99.90;;;;;;4973251;28;20907;-66
2022/10/29 10:06:15;;;;;;;120.50;18.50;;;23.90;99.90;;;;;;4974374;28;20177;-67
2022/10/29 10:09:01;;;;;;;59.47;12.40;;;23.90;99.90;;;;;;4970105;28;20471;-65
2022/10/29 10:11:51;;;;;;;26.90;6.80;;;24.00;99.90;;;;;;4973344;28;20475;-67
2022/10/29 10:14:20;;;;;;;107.43;14.67;;;24.10;99.90;;;;;;4976840;28;20484;-66
2022/10/29 10:16:55;;;;;;;48.83;10.77;;;24.10;99.90;;;;;;4973464;28;20567;-66
2022/10/29 10:19:26;;;;;;;51.90;10.83;;;24.10;99.90;;;;;;4974097;28;20451;-66
2022/10/29 10:22:03;;;;;;;70.73;12.93;;;24.10;99.90;;;;;;4972297;28;20443;-62
2022/10/29 10:24:32;;;;;;;75.67;12.37;;;24.10;99.90;;;;;;4973894;28;20494;-65
2022/10/29 10:26:59;;;;;;;89.47;14.83;;;24.10;99.90;;;;;;4988476;28;20850;-63
2022/10/29 10:29:25;;;;;;;146.33;21.00;;;24.30;99.90;;;;;;4973608;28;20530;-66
2022/10/29 10:31:54;;;;;;;77.80;11.90;;;24.30;99.90;;;;;;4972195;28;20449;-66
2022/10/29 10:34:25;;;;;;;31.17;8.70;;;24.30;99.90;;;;;;4973511;28;20799;-65
2022/10/29 10:37:01;;;;;;;91.17;15.20;;;24.30;99.90;;;;;;4973242;28;20922;-66
2022/10/29 10:39:30;;;;;;;57.43;9.67;;;24.40;99.90;;;;;;4973427;28;20448;-66
2022/10/29 10:41:59;;;;;;;42.63;10.60;;;24.40;99.90;;;;;;4972266;28;20520;-66
2022/10/29 10:44:26;;;;;;;39.03;9.53;;;24.40;99.90;;;;;;4973820;28;20432;-66
2022/10/29 10:46:54;;;;;;;38.20;9.17;;;24.40;99.90;;;;;;4972171;28;20895;-65
2022/10/29 10:49:27;;;;;;;23.80;6.40;;;24.40;99.90;;;;;;4962641;28;20447;-65
2022/10/29 10:51:55;;;;;;;18.47;6.53;;;24.40;99.90;;;;;;4968479;28;20439;-65
2022/10/29 10:54:26;;;;;;;21.47;6.10;;;24.40;99.90;;;;;;4971900;28;20417;-63
2022/10/29 10:57:19;;;;;;;29.23;7.10;;;24.40;99.90;;;;;;4964213;28;20421;-65
2022/10/29 11:00:14;;;;;;;30.43;8.17;;;24.50;99.90;;;;;;4969803;28;20451;-67
2022/10/29 11:02:48;;;;;;;33.70;8.20;;;24.50;99.90;;;;;;4971911;28;20524;-64
2022/10/29 11:05:16;;;;;;;35.23;8.47;;;24.50;99.90;;;;;;4971138;28;20455;-63
2022/10/29 11:08:04;;;;;;;56.30;10.47;;;24.50;99.90;;;;;;4966790;28;20468;-64
2022/10/29 11:10:50;;;;;;;55.77;10.47;;;24.50;99.90;;;;;;4970898;28;20469;-64
2022/10/29 11:13:23;;;;;;;19.13;6.50;;;24.50;99.90;;;;;;4972646;28;20515;-64
2022/10/29 11:16:26;;;;;;;23.87;7.03;;;24.50;99.90;;;;;;4972163;28;20823;-63
2022/10/29 11:18:57;;;;;;;50.73;8.30;;;24.50;99.90;;;;;;4956505;28;20460;-64
2022/10/29 11:21:37;;;;;;;39.47;8.23;;;24.50;99.90;;;;;;4969666;28;20425;-63
2022/10/29 11:24:45;;;;;;;62.80;10.80;;;24.50;99.90;;;;;;4972330;28;20425;-62
2022/10/29 11:27:33;;;;;;;40.00;9.27;;;24.40;99.90;;;;;;4905630;29;20542;-65
2022/10/29 11:30:11;;;;;;;80.60;13.10;;;24.30;99.90;;;;;;4969153;28;20541;-65
2022/10/29 11:33:04;;;;;;;178.77;20.43;;;24.20;99.90;;;;;;4970888;28;20499;-66
2022/10/29 11:36:08;;;;;;;104.03;17.00;;;24.10;99.90;;;;;;4962299;28;20791;-65
2022/10/29 11:38:51;;;;;;;128.37;18.60;;;24.10;99.90;;;;;;4966780;28;20531;-64
2022/10/29 11:41:41;;;;;;;181.37;22.93;;;24.00;99.90;;;;;;4964757;28;20484;-65
2022/10/29 11:44:19;;;;;;;76.13;13.93;;;24.00;99.90;;;;;;4969504;28;20456;-65
2022/10/29 11:46:55;;;;;;;149.87;17.83;;;23.90;99.90;;;;;;4971703;28;21270;-64
2022/10/29 11:49:36;;;;;;;95.87;12.10;;;23.90;99.90;;;;;;4977446;28;20528;-63
2022/10/29 11:52:08;;;;;;;44.53;10.03;;;24.00;99.90;;;;;;4976415;28;20423;-66
2022/10/29 11:55:04;;;;;;;20.23;7.10;;;24.00;99.90;;;;;;4975309;28;20452;-66
2022/10/29 11:57:52;;;;;;;24.93;7.40;;;24.00;99.90;;;;;;4972065;28;20432;-63
2022/10/29 12:00:23;;;;;;;32.47;7.13;;;24.00;99.90;;;;;;4964193;28;20456;-65
2022/10/29 12:03:10;;;;;;;14.17;5.67;;;24.10;99.90;;;;;;4970849;28;20495;-62
2022/10/29 12:05:54;;;;;;;12.27;5.90;;;24.00;99.90;;;;;;4971324;28;20413;-64
2022/10/29 12:08:23;;;;;;;18.27;6.83;;;23.90;99.90;;;;;;4971386;28;20468;-62
2022/10/29 12:11:16;;;;;;;34.23;8.23;;;23.90;99.90;;;;;;4968879;28;20433;-64
2022/10/29 12:14:09;;;;;;;15.40;5.60;;;23.90;99.90;;;;;;4968559;28;20504;-65
2022/10/29 12:16:50;;;;;;;59.93;10.40;;;23.90;99.90;;;;;;4968409;28;20429;-65
2022/10/29 12:19:38;;;;;;;43.27;8.97;;;23.80;99.90;;;;;;4958861;28;20441;-66
2022/10/29 12:22:26;;;;;;;101.90;14.37;;;23.70;99.90;;;;;;4961314;28;20504;-66
2022/10/29 12:25:36;;;;;;;73.87;14.40;;;23.60;99.90;;;;;;4968283;28;20417;-68
2022/10/29 12:28:31;;;;;;;32.40;9.17;;;23.60;99.90;;;;;;4915422;29;20511;-67
2022/10/29 12:30:57;;;;;;;51.83;10.17;;;23.50;99.90;;;;;;4908007;29;20569;-67
2022/10/29 12:33:38;;;;;;;24.03;6.60;;;23.50;99.90;;;;;;4950169;28;20429;-68
2022/10/29 12:36:33;;;;;;;16.20;5.90;;;23.50;99.90;;;;;;4971224;28;20635;-67
2022/10/29 12:39:01;;;;;;;10.03;5.50;;;23.50;99.90;;;;;;4966925;28;20476;-68
2022/10/29 12:41:49;;;;;;;14.13;5.57;;;23.40;99.90;;;;;;4965880;28;20421;-68
2022/10/29 12:44:27;;;;;;;36.73;7.80;;;23.40;99.90;;;;;;4969586;28;20460;-69
2022/10/29 12:46:58;;;;;;;41.37;9.57;;;23.40;99.90;;;;;;4967533;28;20805;-67
2022/10/29 12:50:02;;;;;;;28.67;7.60;;;23.30;99.90;;;;;;4966007;28;20550;-68
2022/10/29 12:52:40;;;;;;;64.87;11.00;;;23.30;99.90;;;;;;4896261;29;20460;-70
2022/10/29 12:55:09;;;;;;;16.60;6.27;;;23.40;99.90;;;;;;4890357;29;20487;-69
2022/10/29 12:57:35;;;;;;;29.10;7.47;;;23.40;99.90;;;;;;4891578;29;20436;-68
2022/10/29 13:00:22;;;;;;;12.83;6.27;;;23.40;99.90;;;;;;4894239;29;20539;-68
2022/10/29 13:02:57;;;;;;;27.47;6.77;;;23.50;99.90;;;;;;4888993;29;20432;-68